createdAt,value
2022-10-26T00:00:43.646Z,5.20
2022-10-26T00:02:46.629Z,4.05
2022-10-26T00:04:49.617Z,5.00
2022-10-26T00:06:52.445Z,4.75
2022-10-26T00:08:55.970Z,5.57
2022-10-26T00:10:59.245Z,4.20
2022-10-26T00:13:02.024Z,3.20
2022-10-26T00:15:05.607Z,6.13
2022-10-26T00:17:09.883Z,7.88
2022-10-26T00:19:12.815Z,5.10
2022-10-26T00:21:15.874Z,7.50
2022-10-26T00:23:18.640Z,6.70
2022-10-26T00:25:21.422Z,6.03
2022-10-26T00:27:24.305Z,6.13
2022-10-26T00:29:27.045Z,3.57
2022-10-26T00:31:29.871Z,4.97
2022-10-26T00:33:34.636Z,7.80
2022-10-26T00:35:46.912Z,5.40
2022-10-26T00:37:50.085Z,5.13
2022-10-26T00:39:52.968Z,4.40
2022-10-26T00:41:55.898Z,5.60
2022-10-26T00:43:59.313Z,7.97
2022-10-26T00:46:04.282Z,8.57
2022-10-26T00:48:13.890Z,4.95
2022-10-26T00:50:21.961Z,8.10
2022-10-26T00:52:25.152Z,10.80
2022-10-26T00:54:27.951Z,6.70
2022-10-26T00:56:32.350Z,7.70
2022-10-26T00:58:36.795Z,7.18
2022-10-26T01:00:41.936Z,4.40
2022-10-26T01:02:48.004Z,4.45
2022-10-26T01:04:51.411Z,4.87
2022-10-26T01:06:56.533Z,3.73
2022-10-26T01:08:59.386Z,5.67
2022-10-26T01:11:03.030Z,8.48
2022-10-26T01:13:06.508Z,4.72
2022-10-26T01:15:10.528Z,6.07
2022-10-26T01:17:29.673Z,5.20
2022-10-26T01:20:10.441Z,5.83
2022-10-26T01:22:18.757Z,8.88
2022-10-26T01:24:33.546Z,6.83
2022-10-26T01:29:32.466Z,9.57
2022-10-26T01:31:43.288Z,7.40
2022-10-26T01:33:52.209Z,9.10
2022-10-26T01:36:03.635Z,5.40
2022-10-26T01:38:12.261Z,8.63
2022-10-26T01:40:30.575Z,7.30
2022-10-26T01:42:35.909Z,8.00
2022-10-26T01:44:42.781Z,4.28
2022-10-26T01:46:50.476Z,6.10
2022-10-26T01:48:59.292Z,4.17
2022-10-26T01:51:04.736Z,5.20
2022-10-26T01:53:07.478Z,5.80
2022-10-26T01:55:45.589Z,5.07
2022-10-26T01:57:52.125Z,4.70
2022-10-26T02:00:03.590Z,5.85
2022-10-26T02:02:42.752Z,5.17
2022-10-26T02:04:59.382Z,5.87
2022-10-26T02:07:04.721Z,4.73
2022-10-26T02:09:13.537Z,5.07
2022-10-26T02:11:25.884Z,6.63
2022-10-26T02:13:34.592Z,9.52
2022-10-26T02:15:46.763Z,4.17
2022-10-26T02:17:57.540Z,3.83
2022-10-26T02:20:04.397Z,6.68
2022-10-26T02:22:14.217Z,6.37
2022-10-26T02:24:18.503Z,5.90
2022-10-26T02:26:25.299Z,4.80
2022-10-26T02:28:32.167Z,5.23
2022-10-26T02:30:37.363Z,5.60
2022-10-26T02:32:45.295Z,6.10
2022-10-26T02:34:55.344Z,3.17
2022-10-26T02:37:01.376Z,5.25
2022-10-26T02:39:06.231Z,4.30
2022-10-26T02:41:11.826Z,5.28
2022-10-26T02:43:16.462Z,3.65
2022-10-26T02:45:24.225Z,5.07
2022-10-26T02:47:28.425Z,5.65
2022-10-26T02:49:31.416Z,4.43
2022-10-26T02:51:41.052Z,4.63
2022-10-26T02:53:50.658Z,4.05
2022-10-26T02:55:53.864Z,3.40
2022-10-26T02:58:00.852Z,4.33
2022-10-26T03:00:04.951Z,2.90
2022-10-26T03:02:07.946Z,7.13
2022-10-26T03:04:10.994Z,5.70
2022-10-26T03:06:13.954Z,3.53
2022-10-26T03:08:18.125Z,4.10
2022-10-26T03:10:21.072Z,6.70
2022-10-26T03:12:23.993Z,7.87
2022-10-26T03:14:26.916Z,6.13
2022-10-26T03:16:29.669Z,5.10
2022-10-26T03:18:32.438Z,7.07
2022-10-26T03:20:35.490Z,4.90
2022-10-26T03:22:38.226Z,4.53
2022-10-26T03:24:42.404Z,5.60
2022-10-26T03:26:45.300Z,5.80
2022-10-26T03:28:48.113Z,5.17
2022-10-26T03:30:51.075Z,4.70
2022-10-26T03:32:54.882Z,3.70
2022-10-26T03:34:57.617Z,6.23
2022-10-26T03:37:00.608Z,3.90
2022-10-26T03:39:04.066Z,5.50
2022-10-26T03:41:08.353Z,5.50
2022-10-26T03:43:11.198Z,6.27
2022-10-26T03:45:13.932Z,5.83
2022-10-26T03:47:16.696Z,4.87
2022-10-26T03:49:19.512Z,5.57
2022-10-26T03:51:22.314Z,4.77
2022-10-26T03:53:25.046Z,5.00
2022-10-26T03:55:27.879Z,4.63
2022-10-26T03:57:32.130Z,5.60
2022-10-26T03:59:34.974Z,4.77
2022-10-26T04:01:37.761Z,4.17
2022-10-26T04:03:40.814Z,3.97
2022-10-26T04:05:43.583Z,4.47
2022-10-26T04:07:52.690Z,6.73
2022-10-26T04:09:55.496Z,3.80
2022-10-26T04:11:58.248Z,3.07
2022-10-26T04:14:02.460Z,6.37
2022-10-26T04:16:05.603Z,3.50
2022-10-26T04:18:08.304Z,5.07
2022-10-26T04:20:12.126Z,7.13
2022-10-26T04:22:15.364Z,4.60
2022-10-26T04:24:18.123Z,3.60
2022-10-26T04:26:20.967Z,5.67
2022-10-26T04:28:24.256Z,4.77
2022-10-26T04:30:28.350Z,3.10
2022-10-26T04:32:31.066Z,4.17
2022-10-26T04:34:33.980Z,5.13
2022-10-26T04:36:36.682Z,5.43
2022-10-26T04:38:39.386Z,5.50
2022-10-26T04:40:42.081Z,3.90
2022-10-26T04:42:45.909Z,5.30
2022-10-26T04:44:48.611Z,6.33
2022-10-26T04:46:52.694Z,5.43
2022-10-26T04:48:55.359Z,5.50
2022-10-26T04:50:59.702Z,4.20
2022-10-26T04:53:02.758Z,3.90
2022-10-26T04:55:06.875Z,5.33
2022-10-26T04:57:09.556Z,4.73
2022-10-26T04:59:12.201Z,10.67
2022-10-26T05:01:14.954Z,5.70
2022-10-26T05:03:19.124Z,3.65
2022-10-26T05:05:21.910Z,3.72
2022-10-26T05:07:24.722Z,8.37
2022-10-26T05:09:27.856Z,6.82
2022-10-26T05:11:30.634Z,5.00
2022-10-26T05:13:33.572Z,4.07
2022-10-26T05:15:36.566Z,5.10
2022-10-26T05:17:39.532Z,6.77
2022-10-26T05:19:43.949Z,19.83
2022-10-26T05:21:47.074Z,25.58
2022-10-26T05:23:55.225Z,15.70
2022-10-26T05:25:57.994Z,9.80
2022-10-26T05:28:01.720Z,10.23
2022-10-26T05:32:12.882Z,7.03
2022-10-26T05:34:15.689Z,13.70
2022-10-26T05:36:20.115Z,11.25
2022-10-26T05:38:22.871Z,9.95
2022-10-26T05:40:25.898Z,8.03
2022-10-26T05:42:28.723Z,4.80
2022-10-26T05:44:31.643Z,4.38
2022-10-26T05:46:34.430Z,4.43
2022-10-26T05:48:37.165Z,5.60
2022-10-26T05:50:40.056Z,3.90
2022-10-26T05:52:45.888Z,4.10
2022-10-26T05:54:48.878Z,4.97
2022-10-26T05:56:52.215Z,5.50
2022-10-26T05:58:55.585Z,5.17
2022-10-26T06:01:14.154Z,6.17
2022-10-26T06:05:43.814Z,6.30
2022-10-26T06:07:49.022Z,5.22
2022-10-26T06:09:52.520Z,5.27
2022-10-26T06:11:55.958Z,4.10
2022-10-26T06:14:00.517Z,6.30
2022-10-26T06:16:18.449Z,4.90
2022-10-26T06:18:30.786Z,7.23
2022-10-26T06:20:45.811Z,5.57
2022-10-26T06:23:00.589Z,6.38
2022-10-26T06:25:13.843Z,5.97
2022-10-26T06:27:27.000Z,6.27
2022-10-26T06:29:41.514Z,4.07
2022-10-26T06:31:44.937Z,10.70
2022-10-26T06:33:47.868Z,9.77
2022-10-26T06:35:59.761Z,11.20
2022-10-26T06:38:09.458Z,6.17
2022-10-26T06:40:14.797Z,7.60
2022-10-26T06:42:18.135Z,7.97
2022-10-26T06:44:23.690Z,9.33
2022-10-26T06:46:34.477Z,7.23
2022-10-26T06:48:47.560Z,5.73
2022-10-26T06:50:53.866Z,5.13
2022-10-26T06:53:05.256Z,5.97
2022-10-26T06:55:16.301Z,5.07
2022-10-26T06:57:21.176Z,4.60
2022-10-26T06:59:34.922Z,8.23
2022-10-26T07:01:37.747Z,4.93
2022-10-26T07:03:40.656Z,7.63
2022-10-26T07:05:44.255Z,5.53
2022-10-26T07:07:49.252Z,6.07
2022-10-26T07:09:52.807Z,7.10
2022-10-26T07:11:56.943Z,11.33
2022-10-26T07:13:59.746Z,16.20
2022-10-26T07:16:02.459Z,23.10
2022-10-26T07:18:06.871Z,22.90
2022-10-26T07:20:10.445Z,15.63
2022-10-26T07:22:13.651Z,17.17
2022-10-26T07:24:16.453Z,17.90
2022-10-26T07:26:19.406Z,15.73
2022-10-26T07:28:23.471Z,13.57
2022-10-26T07:30:26.470Z,13.83
2022-10-26T07:32:29.703Z,10.20
2022-10-26T07:34:32.365Z,11.37
2022-10-26T07:36:36.803Z,7.20
2022-10-26T07:38:40.166Z,8.60
2022-10-26T07:40:42.827Z,7.10
2022-10-26T07:42:47.672Z,4.63
2022-10-26T07:44:52.001Z,9.87
2022-10-26T07:46:54.865Z,7.87
2022-10-26T07:48:57.536Z,10.87
2022-10-26T07:51:03.170Z,7.47
2022-10-26T07:53:06.057Z,8.73
2022-10-26T07:55:10.640Z,5.20
2022-10-26T07:57:13.431Z,8.40
2022-10-26T07:59:17.049Z,5.13
2022-10-26T08:01:21.708Z,7.07
2022-10-26T08:03:24.713Z,5.03
2022-10-26T08:05:27.580Z,7.17
2022-10-26T08:07:30.477Z,3.93
2022-10-26T08:09:33.164Z,3.90
2022-10-26T08:11:37.063Z,5.80
2022-10-26T08:13:39.765Z,4.80
2022-10-26T08:15:42.501Z,4.23
2022-10-26T08:17:46.644Z,4.93
2022-10-26T08:19:50.220Z,4.70
2022-10-26T08:21:53.082Z,3.43
2022-10-26T08:23:55.788Z,5.10
2022-10-26T08:26:00.172Z,4.60
2022-10-26T08:28:04.122Z,4.67
2022-10-26T08:30:07.973Z,4.63
2022-10-26T08:32:10.865Z,2.80
2022-10-26T08:34:15.191Z,3.90
2022-10-26T08:36:24.058Z,3.93
2022-10-26T08:38:27.108Z,5.60
2022-10-26T08:40:33.095Z,2.97
2022-10-26T08:42:41.674Z,4.50
2022-10-26T08:44:47.761Z,5.60
2022-10-26T08:46:55.582Z,3.20
2022-10-26T08:49:05.694Z,4.07
2022-10-26T08:51:15.539Z,5.30
2022-10-26T08:53:25.451Z,4.77
2022-10-26T08:55:33.813Z,5.87
2022-10-26T08:57:41.270Z,5.63
2022-10-26T08:59:50.168Z,3.20
2022-10-26T09:01:52.949Z,5.93
2022-10-26T09:03:57.817Z,8.23
2022-10-26T09:06:26.138Z,3.17
2022-10-26T09:08:35.614Z,5.60
2022-10-26T09:10:41.882Z,6.57
2022-10-26T09:12:50.224Z,10.83
2022-10-26T09:15:04.365Z,5.10
2022-10-26T09:17:17.269Z,5.10
2022-10-26T09:19:35.204Z,3.70
2022-10-26T09:21:49.407Z,3.87
2022-10-26T09:24:03.474Z,5.77
2022-10-26T09:26:12.722Z,5.00
2022-10-26T09:28:18.506Z,5.20
2022-10-26T09:30:22.668Z,9.07
2022-10-26T09:32:31.988Z,5.23
2022-10-26T09:34:40.592Z,3.70
2022-10-26T09:36:44.891Z,8.90
2022-10-26T09:38:54.635Z,4.23
2022-10-26T09:41:03.152Z,6.60
2022-10-26T09:43:11.845Z,4.60
2022-10-26T09:45:19.102Z,5.93
2022-10-26T09:47:31.726Z,5.23
2022-10-26T09:49:45.325Z,4.30
2022-10-26T09:51:49.894Z,8.83
2022-10-26T09:53:52.584Z,8.13
2022-10-26T09:56:03.274Z,6.43
2022-10-26T09:58:10.870Z,8.90
2022-10-26T10:00:16.140Z,4.83
2022-10-26T10:02:38.322Z,5.93
2022-10-26T10:04:48.003Z,8.23
2022-10-26T10:06:54.077Z,8.43
2022-10-26T10:09:10.771Z,5.30
2022-10-26T10:11:15.018Z,8.13
2022-10-26T10:13:21.404Z,8.30
2022-10-26T10:15:26.050Z,4.20
2022-10-26T10:17:29.085Z,5.23
2022-10-26T10:19:33.507Z,5.50
2022-10-26T10:21:38.637Z,3.80
2022-10-26T10:23:51.986Z,5.87
2022-10-26T10:26:00.883Z,6.50
2022-10-26T10:28:04.385Z,5.13
2022-10-26T10:30:22.603Z,9.33
2022-10-26T10:32:27.715Z,7.13
2022-10-26T10:34:32.362Z,6.50
2022-10-26T10:36:35.257Z,7.40
2022-10-26T10:38:40.321Z,6.07
2022-10-26T10:40:51.542Z,6.47
2022-10-26T10:43:03.996Z,5.67
2022-10-26T10:45:08.889Z,10.43
2022-10-26T10:47:20.762Z,7.07
2022-10-26T10:49:27.514Z,5.80
2022-10-26T10:51:36.133Z,6.97
2022-10-26T10:53:46.469Z,6.10
2022-10-26T10:55:58.933Z,4.83
2022-10-26T10:58:15.338Z,6.13
2022-10-26T11:00:20.333Z,4.80
2022-10-26T11:02:45.520Z,5.23
2022-10-26T11:05:05.399Z,3.60
2022-10-26T11:07:11.081Z,7.23
2022-10-26T11:09:17.036Z,5.23
2022-10-26T11:11:25.136Z,4.17
2022-10-26T11:13:34.645Z,6.50
2022-10-26T11:15:40.384Z,4.53
2022-10-26T11:17:48.812Z,8.17
2022-10-26T11:19:56.884Z,5.53
2022-10-26T11:21:59.662Z,6.23
2022-10-26T11:24:14.471Z,5.43
2022-10-26T11:26:24.205Z,6.23
2022-10-26T11:28:38.557Z,4.93
2022-10-26T11:30:47.420Z,4.83
2022-10-26T11:32:55.116Z,5.33
2022-10-26T11:35:05.079Z,5.87
2022-10-26T11:37:15.936Z,3.13
2022-10-26T11:39:24.818Z,4.70
2022-10-26T11:41:33.429Z,5.93
2022-10-26T11:43:41.097Z,5.23
2022-10-26T11:45:46.869Z,6.03
2022-10-26T11:47:53.854Z,6.70
2022-10-26T11:50:04.890Z,8.43
2022-10-26T11:52:16.866Z,4.97
2022-10-26T11:54:25.202Z,5.73
2022-10-26T11:56:34.003Z,6.17
2022-10-26T11:58:38.942Z,6.17
2022-10-26T12:00:49.307Z,6.33
2022-10-26T12:02:57.281Z,5.10
2022-10-26T12:05:06.528Z,9.73
2022-10-26T12:07:14.604Z,6.30
2022-10-26T12:09:21.483Z,7.43
2022-10-26T12:11:38.711Z,7.10
2022-10-26T12:13:48.570Z,7.93
2022-10-26T12:16:03.442Z,6.60
2022-10-26T12:18:20.281Z,7.20
2022-10-26T12:20:54.208Z,7.00
2022-10-26T12:22:57.549Z,5.27
2022-10-26T12:25:13.891Z,5.10
2022-10-26T12:27:50.699Z,7.03
2022-10-26T12:30:16.507Z,7.50
2022-10-26T12:32:53.269Z,5.60
2022-10-26T12:35:03.450Z,7.87
2022-10-26T12:37:24.213Z,9.03
2022-10-26T12:39:32.716Z,6.07
2022-10-26T12:41:39.157Z,4.90
2022-10-26T12:43:42.562Z,7.07
2022-10-26T12:45:48.240Z,6.70
2022-10-26T12:48:10.663Z,6.03
2022-10-26T12:50:24.786Z,5.40
2022-10-26T12:52:48.682Z,4.77
2022-10-26T12:55:15.313Z,5.53
2022-10-26T12:57:25.417Z,3.73
2022-10-26T12:59:39.734Z,6.90
2022-10-26T13:02:04.680Z,5.73
2022-10-26T13:04:21.512Z,8.20
2022-10-26T13:06:49.674Z,5.00
2022-10-26T13:08:59.083Z,5.90
2022-10-26T13:11:07.885Z,6.17
2022-10-26T13:13:24.290Z,5.23
2022-10-26T13:15:30.002Z,4.80
2022-10-26T13:17:35.506Z,6.20
2022-10-26T13:19:44.260Z,5.43
2022-10-26T13:21:49.919Z,5.30
2022-10-26T13:24:01.786Z,8.37
2022-10-26T13:26:12.026Z,5.90
2022-10-26T13:28:33.589Z,4.87
2022-10-26T13:30:44.130Z,5.63
2022-10-26T13:32:54.370Z,5.40
2022-10-26T13:35:01.117Z,3.20
2022-10-26T13:37:20.218Z,6.87
2022-10-26T13:39:27.072Z,4.10
2022-10-26T13:41:34.851Z,5.80
2022-10-26T13:43:38.548Z,5.90
2022-10-26T13:45:50.453Z,5.47
2022-10-26T13:48:00.045Z,5.33
2022-10-26T13:50:08.432Z,6.50
2022-10-26T13:52:17.377Z,8.63
2022-10-26T13:54:27.333Z,4.63
2022-10-26T13:56:34.802Z,4.37
2022-10-26T13:58:43.079Z,3.87
2022-10-26T14:01:01.490Z,5.23
2022-10-26T14:03:15.769Z,6.13
2022-10-26T14:05:20.142Z,4.10
2022-10-26T14:07:37.148Z,5.67
2022-10-26T14:09:40.059Z,6.87
2022-10-26T14:11:47.588Z,9.30
2022-10-26T14:13:51.451Z,6.97
2022-10-26T14:15:56.526Z,6.37
2022-10-26T14:18:01.484Z,6.40
2022-10-26T14:20:06.263Z,5.67
2022-10-26T14:22:09.013Z,7.10
2022-10-26T14:24:24.863Z,4.13
2022-10-26T14:26:41.200Z,4.30
2022-10-26T14:28:50.410Z,4.83
2022-10-26T14:30:53.291Z,6.00
2022-10-26T14:32:56.991Z,6.40
2022-10-26T14:34:59.979Z,9.33
2022-10-26T14:37:05.556Z,6.50
2022-10-26T14:39:29.251Z,6.47
2022-10-26T14:41:36.008Z,6.47
2022-10-26T14:43:39.293Z,6.40
2022-10-26T14:45:49.935Z,5.70
2022-10-26T14:47:53.077Z,3.60
2022-10-26T14:49:56.720Z,7.97
2022-10-26T14:52:00.638Z,7.37
2022-10-26T14:54:05.828Z,8.50
2022-10-26T14:56:28.611Z,5.13
2022-10-26T14:58:32.355Z,9.63
2022-10-26T15:00:36.043Z,11.03
2022-10-26T15:02:39.151Z,4.20
2022-10-26T15:04:43.653Z,17.73
2022-10-26T15:06:47.273Z,8.50
2022-10-26T15:08:57.344Z,6.80
2022-10-26T15:11:08.237Z,12.50
2022-10-26T15:13:11.584Z,6.57
2022-10-26T15:17:31.955Z,7.57
2022-10-26T15:19:35.065Z,7.63
2022-10-26T15:21:47.013Z,9.37
2022-10-26T15:23:50.260Z,6.47
2022-10-26T15:25:56.029Z,6.57
2022-10-26T15:28:11.845Z,5.07
2022-10-26T15:30:24.251Z,13.17
2022-10-26T15:32:31.227Z,9.70
2022-10-26T15:34:34.036Z,12.67
2022-10-26T15:36:36.968Z,7.13
2022-10-26T15:38:39.696Z,7.07
2022-10-26T15:40:44.628Z,7.63
2022-10-26T15:42:50.831Z,6.63
2022-10-26T15:44:55.402Z,6.30
2022-10-26T15:47:06.426Z,9.60
2022-10-26T15:49:18.008Z,11.80
2022-10-26T15:51:20.732Z,8.73
2022-10-26T15:53:27.461Z,13.07
2022-10-26T15:55:31.751Z,19.83
2022-10-26T15:57:34.637Z,17.03
2022-10-26T15:59:38.378Z,32.33
2022-10-26T16:01:42.951Z,29.33
2022-10-26T16:03:46.025Z,15.93
2022-10-26T16:05:50.491Z,17.53
2022-10-26T16:07:53.474Z,16.07
2022-10-26T16:09:56.471Z,19.37
2022-10-26T16:11:59.279Z,7.77
2022-10-26T16:14:03.839Z,9.00
2022-10-26T16:16:13.694Z,8.83
2022-10-26T16:18:17.826Z,8.23
2022-10-26T16:20:23.255Z,8.17
2022-10-26T16:22:26.178Z,13.10
2022-10-26T16:24:30.224Z,9.57
2022-10-26T16:26:33.020Z,9.27
2022-10-26T16:28:36.281Z,6.30
2022-10-26T16:30:42.309Z,11.70
2022-10-26T16:32:45.385Z,9.50
2022-10-26T16:34:49.540Z,9.90
2022-10-26T16:36:52.280Z,12.13
2022-10-26T16:38:55.679Z,9.77
2022-10-26T16:41:05.715Z,11.27
2022-10-26T16:43:08.521Z,9.23
2022-10-26T16:45:12.283Z,7.53
2022-10-26T16:47:15.334Z,10.03
2022-10-26T16:49:18.140Z,13.57
2022-10-26T16:51:23.667Z,6.33
2022-10-26T16:53:26.576Z,15.80
2022-10-26T16:55:30.912Z,10.60
2022-10-26T16:57:37.682Z,9.97
2022-10-26T16:59:42.573Z,10.73
2022-10-26T17:01:47.912Z,8.83
2022-10-26T17:03:53.468Z,12.20
2022-10-26T17:05:58.149Z,11.13
2022-10-26T17:08:02.719Z,10.37
2022-10-26T17:10:06.585Z,8.23
2022-10-26T17:12:11.200Z,6.03
2022-10-26T17:14:14.366Z,11.33
2022-10-26T17:16:19.833Z,10.37
2022-10-26T17:18:23.151Z,16.17
2022-10-26T17:20:26.020Z,12.17
2022-10-26T17:22:28.949Z,10.60
2022-10-26T17:24:33.421Z,12.63
2022-10-26T17:26:36.342Z,9.77
2022-10-26T17:28:39.384Z,17.97
2022-10-26T17:30:42.610Z,11.37
2022-10-26T17:32:45.358Z,12.17
2022-10-26T17:34:48.031Z,11.90
2022-10-26T17:36:50.693Z,7.60
2022-10-26T17:38:54.791Z,10.83
2022-10-26T17:41:02.902Z,11.13
2022-10-26T17:43:05.593Z,8.53
2022-10-26T17:45:10.187Z,8.77
2022-10-26T17:47:12.861Z,9.13
2022-10-26T17:49:15.655Z,10.63
2022-10-26T17:51:20.390Z,9.63
2022-10-26T17:53:23.261Z,10.30
2022-10-26T17:55:25.969Z,10.90
2022-10-26T17:57:30.044Z,11.63
2022-10-26T17:59:32.771Z,14.13
2022-10-26T18:01:35.451Z,12.43
2022-10-26T18:03:39.012Z,12.20
2022-10-26T18:05:41.660Z,13.47
2022-10-26T18:07:44.349Z,11.97
2022-10-26T18:09:47.215Z,10.37
2022-10-26T18:11:52.193Z,10.97
2022-10-26T18:13:59.239Z,12.67
2022-10-26T18:16:06.557Z,12.57
2022-10-26T18:18:09.301Z,11.63
2022-10-26T18:20:12.302Z,7.73
2022-10-26T18:22:15.002Z,11.17
2022-10-26T18:24:17.776Z,11.53
2022-10-26T18:26:22.263Z,9.30
2022-10-26T18:28:24.941Z,16.00
2022-10-26T18:30:29.067Z,19.10
2022-10-26T18:32:31.726Z,20.67
2022-10-26T18:34:34.411Z,21.80
2022-10-26T18:38:41.209Z,17.40
2022-10-26T18:40:45.738Z,17.47
2022-10-26T18:42:51.973Z,17.03
2022-10-26T18:47:05.599Z,20.93
2022-10-26T18:49:08.351Z,14.10
2022-10-26T18:51:12.849Z,11.90
2022-10-26T18:53:16.816Z,11.80
2022-10-26T18:55:19.505Z,15.23
2022-10-26T18:57:26.840Z,9.77
2022-10-26T18:59:29.642Z,10.60
2022-10-26T19:01:34.324Z,9.70
2022-10-26T19:03:39.734Z,10.37
2022-10-26T19:05:42.482Z,10.23
2022-10-26T19:07:45.153Z,9.53
2022-10-26T19:09:47.844Z,10.20
2022-10-26T19:11:50.531Z,10.77
2022-10-26T19:13:54.033Z,11.87
2022-10-26T19:16:03.383Z,21.23
2022-10-26T19:18:06.455Z,14.40
2022-10-26T19:20:12.891Z,13.20
2022-10-26T19:22:15.581Z,10.03
2022-10-26T19:24:20.628Z,8.57
2022-10-26T19:26:25.434Z,11.30
2022-10-26T19:28:28.328Z,7.33
2022-10-26T19:30:30.968Z,11.43
2022-10-26T19:32:33.676Z,10.30
2022-10-26T19:34:36.361Z,10.67
2022-10-26T19:36:44.084Z,10.90
2022-10-26T19:38:47.240Z,9.53
2022-10-26T19:40:56.974Z,10.80
2022-10-26T19:42:59.689Z,10.03
2022-10-26T19:45:02.457Z,18.50
2022-10-26T19:47:05.662Z,29.57
2022-10-26T19:49:08.767Z,18.83
2022-10-26T19:51:11.501Z,22.10
2022-10-26T19:53:17.336Z,12.57
2022-10-26T19:55:20.133Z,13.57
2022-10-26T19:57:22.931Z,12.87
2022-10-26T19:59:26.720Z,19.87
2022-10-26T20:01:29.515Z,12.80
2022-10-26T20:03:32.442Z,13.10
2022-10-26T20:05:35.282Z,13.33
2022-10-26T20:07:38.085Z,15.43
2022-10-26T20:09:42.148Z,14.73
2022-10-26T20:11:46.468Z,16.00
2022-10-26T20:13:49.825Z,16.93
2022-10-26T20:15:53.445Z,12.60
2022-10-26T20:17:56.132Z,12.33
2022-10-26T20:19:58.840Z,13.07
2022-10-26T20:22:01.520Z,11.43
2022-10-26T20:24:07.862Z,11.60
2022-10-26T20:26:18.359Z,12.50
2022-10-26T20:28:22.717Z,13.87
2022-10-26T20:30:25.407Z,14.27
2022-10-26T20:32:29.311Z,9.27
2022-10-26T20:34:32.212Z,11.57
2022-10-26T20:36:35.129Z,12.53
2022-10-26T20:38:39.705Z,10.57
2022-10-26T20:40:43.079Z,10.27
2022-10-26T20:44:53.845Z,10.23
2022-10-26T20:46:57.074Z,12.87
2022-10-26T20:49:00.256Z,9.73
2022-10-26T20:51:07.351Z,9.30
2022-10-26T20:53:17.536Z,9.10
2022-10-26T20:55:30.265Z,9.37
2022-10-26T20:57:36.354Z,11.67
2022-10-26T20:59:46.500Z,7.80
2022-10-26T21:01:49.361Z,8.97
2022-10-26T21:03:52.686Z,12.13
2022-10-26T21:05:56.798Z,7.40
2022-10-26T21:07:59.625Z,10.53
2022-10-26T21:10:02.418Z,9.17
2022-10-26T21:12:05.586Z,9.67
2022-10-26T21:14:08.282Z,11.53
2022-10-26T21:16:12.579Z,8.00
2022-10-26T21:18:15.297Z,10.73
2022-10-26T21:20:18.042Z,8.93
2022-10-26T21:22:20.787Z,8.67
2022-10-26T21:24:23.567Z,7.90
2022-10-26T21:26:26.381Z,7.03
2022-10-26T21:28:34.817Z,8.30
2022-10-26T21:30:37.552Z,12.00
2022-10-26T21:32:41.682Z,14.43
2022-10-26T21:34:44.396Z,10.27
2022-10-26T21:36:47.056Z,9.43
2022-10-26T21:38:49.730Z,9.40
2022-10-26T21:40:52.448Z,9.93
2022-10-26T21:42:55.168Z,12.10
2022-10-26T21:44:57.858Z,15.63
2022-10-26T21:47:00.671Z,14.77
2022-10-26T21:49:05.071Z,11.60
2022-10-26T21:51:09.223Z,13.50
2022-10-26T21:53:11.910Z,12.87
2022-10-26T21:55:15.114Z,9.57
2022-10-26T21:57:17.899Z,16.90
2022-10-26T21:59:20.635Z,15.47
2022-10-26T22:01:23.928Z,14.23
2022-10-26T22:03:26.979Z,12.53
2022-10-26T22:05:31.223Z,13.97
2022-10-26T22:07:33.909Z,11.37
2022-10-26T22:09:44.879Z,10.30
2022-10-26T22:11:59.367Z,13.27
2022-10-26T22:14:02.162Z,12.80
2022-10-26T22:16:07.751Z,10.57
2022-10-26T22:18:10.442Z,9.40
2022-10-26T22:20:13.365Z,10.70
2022-10-26T22:22:17.407Z,12.97
2022-10-26T22:24:20.142Z,9.30
2022-10-26T22:26:24.594Z,11.30
2022-10-26T22:28:27.289Z,8.70
2022-10-26T22:30:32.701Z,9.63
2022-10-26T22:32:35.423Z,8.77
2022-10-26T22:34:38.104Z,6.67
2022-10-26T22:36:40.802Z,8.83
2022-10-26T22:38:44.838Z,9.53
2022-10-26T22:40:54.834Z,9.87
2022-10-26T22:42:57.598Z,10.70
2022-10-26T22:45:00.341Z,11.87
2022-10-26T22:47:03.088Z,8.67
2022-10-26T22:49:06.094Z,12.47
2022-10-26T22:51:10.863Z,8.00
2022-10-26T22:53:13.567Z,11.17
2022-10-26T22:55:17.631Z,5.73
2022-10-26T22:57:20.360Z,9.13
2022-10-26T22:59:23.067Z,8.57
2022-10-26T23:01:28.339Z,8.37
2022-10-26T23:03:31.152Z,8.17
2022-10-26T23:05:33.855Z,10.63
2022-10-26T23:07:36.542Z,9.68
2022-10-26T23:09:39.288Z,11.17
2022-10-26T23:11:43.325Z,9.32
2022-10-26T23:13:46.141Z,10.35
2022-10-26T23:15:48.810Z,10.40
2022-10-26T23:17:51.797Z,12.20
2022-10-26T23:19:54.645Z,12.88
2022-10-26T23:21:57.282Z,8.73
2022-10-26T23:24:00.017Z,11.47
2022-10-26T23:26:03.303Z,11.88
2022-10-26T23:28:07.429Z,9.00
2022-10-26T23:30:11.150Z,9.65
2022-10-26T23:32:13.845Z,11.55
2022-10-26T23:34:16.496Z,13.30
2022-10-26T23:36:20.018Z,12.95
2022-10-26T23:38:22.752Z,11.23
2022-10-26T23:40:25.484Z,10.80
2022-10-26T23:42:28.314Z,11.85
2022-10-26T23:44:32.395Z,10.40
2022-10-26T23:46:35.146Z,9.67
2022-10-26T23:48:37.969Z,12.77
2022-10-26T23:50:42.948Z,7.53
2022-10-26T23:52:48.032Z,12.32
2022-10-26T23:54:50.815Z,10.05
2022-10-26T23:56:53.555Z,12.23
2022-10-26T23:58:56.322Z,9.25
